Tiempo atmosférico en la estación meteorológica de Navarredonda De Gredos, Ávila (1550 m.)



Fecha
DESCASC
Temp. máxima en grados centígrados (hora)
DESCASC
Temp. mínima en grados centígrados (hora)
DESCASC
Temp. media en grados centígrados
DESCASC
Racha de viento máxima en m/sg (hora)
DESCASC
Velocidad máxima media en intervalos de 10 minutos(hora)
DESCASC
Precipitaciones diarias en mm
DESCASC
Precipitaciones de 00:00 a 06:00 en mm
DESCASC
Precipitaciones de 06:00 a 12:00 en mm
DESCASC
Precipitaciones de 12:00 a 18:00 en mm
DESCASC
Precipitaciones de 18:00 a 24:00 en mm
DESCASC
19-10-2019 14.6 (12:30) 2.2 (00:00) 8.4 10.83 (21:00) 4.72 (13:30) -- -- -- -- --
20-10-2019 6.3 (14:00) 0 (00:00) 3.2 6.67 (14:40) 1.94 (14:40) -- -- -- -- --
21-10-2019 7.1 (16:10) -2 (-00:0) 2.5 6.67 (18:30) 2.22 (13:50) -- -- -- -- --
22-10-2019 10.3 (15:00) -1.9 (-00:0) 4.2 -- (--) -- (--) -- -- -- -- --
23-10-2019 5.5 (14:30) 0.3 (00:00) 2.9 7.5 (14:40) 1.67 (12:50) -- -- -- -- --
24-10-2019 14.2 (15:20) 1.4 (00:00) 7.8 5.83 (08:30) 1.67 (08:30) -- -- -- 0 0
18-10-2019 18.2 (16:20) 3.9 (00:00) 11.1 6.11 (16:20) 2.22 (16:20) -- -- -- -- --
08-11-2019 4.9 (14:30) -2 (-00:0) 1.5 6.67 (04:00) 0.83 (04:00) 0 0 0 0 0
09-11-2019 5.7 (13:40) -1.2 (-00:0) 2.2 8.33 (19:40) 1.11 (16:50) 13.6 0 0.2 13.3 0.1
06-11-2019 8.4 (14:30) 1.5 (00:00) 4.9 6.11 (01:20) 1.39 (09:00) -- 0 0 0.1 --
10-11-2019 2.1 (00:00) -1.1 (-00:0) 0.5 8.89 (02:20) 1.94 (23:40) 3.1 0 0 2.9 0.2
04-11-2019 13.5 (14:20) 2.7 (00:00) 8.1 12.78 (18:00) 3.33 (11:30) 1.1 0 0 0.1 1
12-11-2019 8.6 (12:30) -1.1 (-00:0) 3.8 16.39 (17:50) 2.78 (20:10) 2 0 0 0.1 1.9
30-10-2019 14 (11:40) 5.3 (00:00) 9.7 5.83 (22:10) 1.67 (21:30) 0.3 0 0 0 0.3
29-10-2019 17.6 (13:20) 6 (00:00) 11.8 5.28 (13:30) 1.67 (14:20) 0 0 0 0 0
28-10-2019 20.5 (13:00) 7.4 (00:00) 14 5.28 (13:40) 2.22 (02:40) 0 0 0 0 0
27-10-2019 19.8 (14:30) 5.1 (00:00) 12.4 4.44 (14:20) 1.67 (21:30) 0 0 0 0 0
26-10-2019 19.7 (13:50) 4.4 (00:00) 12.1 5.56 (15:30) 2.5 (15:10) 0 0 0 0 0
25-10-2019 18.7 (15:20) 4.1 (00:00) 11.4 6.39 (14:00) 2.5 (12:40) 0 0 0 0 0
31-10-2019 17.4 (12:00) 8.9 (07:50) 13.1 6.67 (01:10) 2.22 (12:50) 1.4 0.1 0 0.3 1
11-11-2019 7.8 (13:50) 0.1 (00:20) 4 6.11 (14:20) 1.94 (07:00) 0.6 0.1 0.4 0 0.1
16-11-2019 4.6 (14:10) -2.7 (-00:0) 0.9 12.5 (20:20) 4.17 (21:40) 0.3 0.2 0 0.1 0
14-11-2019 3.2 (00:00) -1.6 (-00:0) 0.8 9.72 (19:00) 1.39 (15:10) 8.8 0.3 4 1.7 2.8
05-11-2019 5.3 (16:40) 1 (00:00) 3.2 10.28 (02:40) 2.78 (10:20) 1.6 0.5 0.5 0.6 0
03-11-2019 8.2 (23:10) 5.6 (00:00) 6.9 11.67 (01:40) 3.61 (02:50) 2.1 0.6 1.5 0 0
01-11-2019 13.2 (12:30) 9.5 (00:00) 11.3 10 (19:50) 2.5 (17:10) 5.4 0.7 0.2 1.6 2.9
15-11-2019 0 (15:00) -2.8 (-00:0) -1.4 8.89 (01:00) 1.94 (14:20) 1.2 1 0.1 0 0.1
02-11-2019 13.4 (14:10) 6.6 (00:00) 10 9.44 (23:50) 2.5 (22:30) 3.6 1.5 1.1 1 0
07-11-2019 6.1 (02:00) -1.1 (-00:0) 2.5 8.33 (07:50) 1.67 (04:10) 4.4 2.7 0.1 0.5 1.1
13-11-2019 10.9 (14:10) 3.2 (00:00) 7 11.11 (02:20) 3.33 (03:30) 7.5 4.7 2.8 0 0

Gráficas

Temp. máximas Temp. mínimas Temp. medias Precipitaciones Rachas de viento máximas Velocidades máximas media en intervalos de 10 minutos

Datos horarios

Fecha y hora oficial Temperatura (ºC) Velocidad del viento (km/h) Dirección del viento Racha (km/h) Dirección de racha Precipitación (mm) Presión (hPa) Tendencia (hPa) Humedad (%)
2019-11-16 23:00:00 -1.9 13 Oeste 39 Sudoeste 0 -- -- 87
2019-11-16 22:00:00 -1.6 10 Oeste 44 Oeste 0 -- -- 87
2019-11-16 21:00:00 -1.9 13 Sudoeste 45 Sudoeste 0 -- -- 86
2019-11-16 20:00:00 -1.9 12 Oeste 41 Sudoeste 0 -- -- 83
2019-11-16 19:00:00 -1.2 13 Oeste 39 Oeste 0 -- -- 80
2019-11-16 18:00:00 -0.4 4 Oeste 23 Sudeste 0 -- -- 79
2019-11-16 17:00:00 0.8 8 Sudoeste 19 Sudoeste 0.1 -- -- 74
2019-11-16 16:00:00 1.3 2 Sudoeste 18 Noroeste 0 -- -- 71
2019-11-16 15:00:00 2.1 4 Oeste 15 Noroeste 0 -- -- 64
2019-11-16 14:00:00 4.5 5 Sudoeste 16 Sudoeste 0 -- -- 64
2019-11-16 13:00:00 3.2 5 Oeste 17 Noroeste 0 -- -- 66
2019-11-16 12:00:00 2.8 5 Oeste 19 Sudoeste 0 -- -- 72
2019-11-16 11:00:00 1.7 8 Oeste 22 Oeste 0 -- -- 74
2019-11-16 10:00:00 0.7 5 Oeste 24 Noroeste 0 -- -- 86
2019-11-16 09:00:00 -1.7 4 Oeste 19 Oeste 0 -- -- 92
2019-11-16 08:00:00 -2.5 0 Calma 19 Noroeste 0 -- -- 92
2019-11-16 07:00:00 -2.5 4 Sudoeste 24 Noroeste 0 -- -- 94
2019-11-16 06:00:00 -2.5 2 Noroeste 18 Sudoeste 0 -- -- 94
2019-11-16 05:00:00 -2.6 5 Noroeste 22 Noroeste 0.1 -- -- 94
2019-11-16 04:00:00 -2.7 3 Oeste 16 Noroeste 0 -- -- 92
2019-11-16 03:00:00 -2.6 0 Calma 18 Noroeste 0.1 -- -- 94
2019-11-16 02:00:00 -2.2 5 Noroeste 17 Noroeste 0 -- -- 95
2019-11-16 01:00:00 -2.2 0 Calma 15 Sudoeste 0 -- -- 95
2019-11-16 00:00:00 -2.2 5 Sudoeste 17 Oeste 0.1 -- -- 95
2019-11-15 23:00:00 -2.1 4 Oeste 18 Oeste 0 -- -- 94
2019-11-15 22:00:00 -2 5 Oeste 18 Oeste 0 -- -- 94
2019-11-15 21:00:00 -1.7 4 Sudoeste 18 Oeste 0 -- -- 94
2019-11-15 20:00:00 -1.7 4 Sudoeste 17 Oeste 0 -- -- 92
2019-11-15 19:00:00 -1.7 4 Oeste 16 Norte 0 -- -- 91
2019-11-15 18:00:00 -1.3 4 Oeste 14 Oeste 0 -- -- 91
2019-11-15 17:00:00 -0.8 3 Oeste 14 Sudoeste 0 -- -- 90
2019-11-15 16:00:00 -0.5 5 Sudoeste 16 Sudoeste 0 -- -- 90
2019-11-15 15:00:00 -0.1 4 Oeste 18 Oeste 0 -- -- 90
2019-11-15 14:00:00 -0.8 6 Oeste 19 Sudoeste 0 -- -- 92
2019-11-15 13:00:00 -1.4 3 Oeste 17 Sudoeste 0 -- -- 95
2019-11-15 12:00:00 -2.2 5 Oeste 15 Oeste 0 -- -- 95
2019-11-15 11:00:00 -2.4 3 Oeste 25 Sudoeste 0 -- -- 95
2019-11-15 10:00:00 -2.5 4 Sudoeste 16 Sudoeste 0 -- -- 95
2019-11-15 09:00:00 -2.5 3 Oeste 19 Oeste 0 -- -- 95
2019-11-15 08:00:00 -2.7 3 Oeste 18 Sudoeste 0 -- -- 95
2019-11-15 07:00:00 -2.6 3 Sudoeste 14 Oeste 0.1 -- -- 95
2019-11-15 06:00:00 -2.6 4 Sudoeste 18 Sudoeste 0.1 -- -- 95
2019-11-15 05:00:00 -2.5 3 Oeste 21 Oeste 0.1 -- -- 95
2019-11-15 04:00:00 -2.4 3 Oeste 21 Oeste 0.3 -- -- 95
2019-11-15 03:00:00 -2.2 3 Oeste 24 Noroeste 0.1 -- -- 95
2019-11-15 02:00:00 -1.9 3 Oeste 29 Sudoeste 0.2 -- -- 95
2019-11-15 01:00:00 -1.7 2 Oeste 32 Noroeste 0.2 -- -- 95
2019-11-15 00:00:00 -1.6 2 Oeste 29 Noroeste 0.2 -- -- 95
2019-11-14 23:00:00 -1.2 3 Oeste 28 Oeste 0.9 -- -- 95
2019-11-14 22:00:00 -1 3 Oeste 26 Noroeste 0 -- -- 94
2019-11-14 21:00:00 -0.6 2 Noroeste 22 Oeste 1.3 -- -- 94
2019-11-14 20:00:00 -0.5 2 Oeste 33 Oeste 0.3 -- -- 94
2019-11-14 19:00:00 -0.5 2 Oeste 35 Oeste 0.1 -- -- 94
2019-11-14 18:00:00 -0.3 3 Oeste 27 Oeste 0.4 -- -- 95
2019-11-14 17:00:00 -0.4 3 Oeste 29 Oeste 0.3 -- -- 95
2019-11-14 16:00:00 -0.5 3 Oeste 23 Oeste 0.7 -- -- 94
2019-11-14 15:00:00 -0.4 4 Oeste 24 Sudoeste 0.1 -- -- 91
2019-11-14 14:00:00 0 4 Oeste 22 Oeste 0 -- -- 90
2019-11-14 13:00:00 0.1 4 Oeste 24 Sudoeste 0.2 -- -- 90
2019-11-14 12:00:00 0 3 Oeste 20 Oeste 0 -- -- 92
2019-11-14 11:00:00 -0.4 3 Oeste 24 Oeste 0 -- -- 92
2019-11-14 10:00:00 -1.1 0 Calma 21 Oeste 0.1 -- -- 92
2019-11-14 09:00:00 -1 2 Oeste 24 Oeste 0.2 -- -- 94
2019-11-14 08:00:00 -0.3 0 Calma 18 Oeste 2.4 -- -- 95
2019-11-14 07:00:00 0.8 3 Oeste 25 Oeste 1.3 -- -- 94
2019-11-14 06:00:00 1.9 3 Oeste 25 Oeste 0.3 -- -- 94
2019-11-14 05:00:00 2.8 4 Oeste 28 Oeste 0 -- -- 87
2019-11-14 04:00:00 2.4 3 Sudoeste 20 Oeste 0 -- -- 82
2019-11-14 03:00:00 1 3 Oeste 17 Sudoeste 0 -- -- 92
2019-11-14 02:00:00 1 2 Oeste 17 Oeste 0 -- -- 91
2019-11-14 01:00:00 2.4 2 Oeste 14 Oeste 0 -- -- 91
2019-11-14 00:00:00 3.2 0 Calma 18 Noroeste 0 -- -- 87
2019-11-13 23:00:00 3.6 2 Oeste 13 Oeste 0 -- -- 84
2019-11-13 22:00:00 3.8 2 Oeste 10 Oeste 0 -- -- 88
2019-11-13 21:00:00 4.6 0 Calma 14 Sudoeste 0 -- -- 86
2019-11-13 20:00:00 5.2 3 Sudoeste 14 Sudoeste 0 -- -- 83
2019-11-13 19:00:00 5.6 3 Sudoeste 18 Oeste 0 -- -- 74
2019-11-13 18:00:00 6.7 2 Oeste 16 Noroeste 0 -- -- 68
2019-11-13 17:00:00 8.6 2 Oeste 14 Oeste 0 -- -- 64
2019-11-13 16:00:00 9 2 Oeste 15 Noroeste 0 -- -- 65
2019-11-13 15:00:00 9.5 3 Oeste 18 Noroeste 0 -- -- 64
2019-11-13 14:00:00 10.7 4 Oeste 17 Oeste 0 -- -- 67
2019-11-13 13:00:00 7.9 4 Oeste 19 Noroeste 0 -- -- 82
2019-11-13 12:00:00 7.4 3 Oeste 26 Noroeste 0 -- -- 84
2019-11-13 11:00:00 8.5 4 Noroeste 29 Noroeste 0.1 -- -- 84
2019-11-13 10:00:00 7.2 2 Noroeste 31 Noroeste 0.2 -- -- 94
2019-11-13 09:00:00 6.5 4 Oeste 24 Sudoeste 0.4 -- -- 95
2019-11-13 08:00:00 6 3 Oeste 29 Oeste 1.1 -- -- 95
2019-11-13 07:00:00 6.2 6 Oeste 37 Oeste 1 -- -- 94
2019-11-13 06:00:00 6.5 7 Oeste 31 Noroeste 0.3 -- -- 95
2019-11-13 05:00:00 6.7 7 Oeste 28 Oeste 0.7 -- -- 96
2019-11-13 04:00:00 6.3 6 Oeste 35 Sudoeste 1 -- -- 96
2019-11-13 03:00:00 6.2 7 Sudoeste 40 Oeste 1.6 -- -- 96
2019-11-13 02:00:00 5.9 10 Oeste 37 Noroeste 0.7 -- -- 96
2019-11-13 01:00:00 5.9 9 Oeste 38 Oeste 0.4 -- -- 96
2019-11-13 00:00:00 5.6 9 Sudoeste 35 Oeste 0.1 -- -- 96
2019-11-12 23:00:00 5.5 8 Oeste 39 Sudoeste 0.5 -- -- 96
2019-11-12 22:00:00 5.2 9 Oeste 44 Sudoeste 0.5 -- -- 96
2019-11-12 21:00:00 5.1 8 Oeste 47 Oeste 0.1 -- -- 96
2019-11-12 20:00:00 4.5 9 Oeste 39 Oeste 0.5 -- -- 95
2019-11-12 19:00:00 3.8 4 Oeste 41 Sudeste 0.2 -- -- 94
2019-11-12 18:00:00 3.8 7 Oeste 59 Oeste 0.1 -- -- 89
2019-11-12 17:00:00 5.2 3 Oeste 30 Oeste 0 -- -- 68
2019-11-12 16:00:00 7 3 Oeste 23 Oeste 0 -- -- 52
2019-11-12 15:00:00 7.8 2 Oeste 33 Sudoeste 0 -- -- 48
2019-11-12 14:00:00 8.3 4 Oeste 51 Oeste 0 -- -- 43
2019-11-12 13:00:00 7.9 6 Sudoeste 45 Sudoeste 0 -- -- 49
2019-11-12 12:00:00 7.7 6 Sudoeste 45 Sudoeste 0 -- -- 56
2019-11-12 11:00:00 5.8 4 Oeste 36 Oeste 0 -- -- 70
2019-11-12 10:00:00 3.8 2 Sudoeste 15 Sudoeste 0 -- -- 88
2019-11-12 09:00:00 0.6 3 Sudoeste 14 Este 0 -- -- 96
2019-11-12 08:00:00 -0.4 0 Calma 7 Sudoeste 0 -- -- 96
2019-11-12 07:00:00 -0.8 2 Sudeste 6 Sudeste 0 -- -- 96
2019-11-12 06:00:00 -0.7 2 Noroeste 6 Sudoeste 0 -- -- 96
2019-11-12 05:00:00 -0.7 0 Calma 7 Noroeste 0 -- -- 95
2019-11-12 04:00:00 -0.8 0 Calma 5 Oeste 0 -- -- 95
2019-11-12 03:00:00 -0.2 2 Oeste 9 Sudoeste 0 -- -- 94
2019-11-12 02:00:00 0.1 2 Oeste 9 Noroeste 0 -- -- 92
2019-11-12 01:00:00 0.8 0 Calma 12 Sudoeste 0 -- -- 90
2019-11-12 00:00:00 0.5 0 Calma 9 Sudoeste 0 -- -- 90
2019-11-11 23:00:00 1 2 Oeste 12 Oeste 0 -- -- 90
2019-11-11 22:00:00 1.3 0 Calma 18 Noroeste 0 -- -- 86
2019-11-11 21:00:00 2.6 2 Noroeste 16 Oeste 0.1 -- -- 80
2019-11-11 20:00:00 4 3 Noroeste 21 Noroeste 0 -- -- 79
2019-11-11 19:00:00 5.4 3 Noroeste 15 Noroeste 0 -- -- 86
2019-11-11 18:00:00 5.8 0 Calma 14 Noroeste 0 -- -- 81
2019-11-11 17:00:00 6.6 2 Noroeste 17 Norte 0 -- -- 79
2019-11-11 16:00:00 7.1 0 Calma 16 Noroeste 0 -- -- 84
2019-11-11 15:00:00 7 3 Noroeste 22 Noroeste 0 -- -- 87
2019-11-11 14:00:00 7.5 0 Calma 15 Oeste 0 -- -- 96
2019-11-11 13:00:00 7.1 3 Oeste 16 Noroeste 0 -- -- 98
2019-11-11 12:00:00 6.2 2 Oeste 14 Sudoeste 0 -- -- 98
2019-11-11 11:00:00 5.3 2 Oeste 14 Oeste 0.1 -- -- 98
2019-11-11 10:00:00 4.1 2 Oeste 13 Oeste 0.2 -- -- 98
2019-11-11 09:00:00 2.6 3 Oeste 12 Sudoeste 0.1 -- -- 98
2019-11-11 08:00:00 1.5 4 Oeste 15 Sudoeste 0 -- -- 98
2019-11-11 07:00:00 1.3 7 Oeste 17 Sudoeste 0 -- -- 98
2019-11-11 06:00:00 0.9 5 Oeste 13 Oeste 0 -- -- 98
2019-11-11 05:00:00 0.7 4 Oeste 13 Oeste 0 -- -- 98
2019-11-11 04:00:00 0.6 2 Oeste 13 Oeste 0 -- -- 98
2019-11-11 03:00:00 0.4 4 Oeste 12 Oeste 0.1 -- -- 98
2019-11-11 02:00:00 0.3 3 Sudoeste 15 Sudoeste 0 -- -- 97
2019-11-11 01:00:00 0.3 6 Sudoeste 16 Sur 0 -- -- 97
2019-11-11 00:00:00 0.3 6 Sudoeste 19 Sudoeste 0 -- -- 96
2019-11-10 23:00:00 0.3 3 Oeste 19 Noroeste 0 -- -- 96
2019-11-10 22:00:00 0.3 0 Calma 17 Noroeste 0 -- -- 96
2019-11-10 21:00:00 0.4 0 Calma 20 Noroeste 0 -- -- 96
2019-11-10 20:00:00 0.4 2 Noroeste 23 Noroeste 0.1 -- -- 96
2019-11-10 19:00:00 0.4 0 Calma 24 Oeste 0.1 -- -- 95
2019-11-10 18:00:00 0.5 0 Calma 21 Oeste 0.2 -- -- 95
2019-11-10 17:00:00 0.4 3 Oeste 20 Noroeste 0.4 -- -- 94
2019-11-10 16:00:00 0.5 0 Calma 15 Oeste 0.6 -- -- 94
2019-11-10 15:00:00 0.5 0 Calma 17 Oeste 0.7 -- -- 94
2019-11-10 14:00:00 0.4 0 Calma 17 Noroeste 0.7 -- -- 94
2019-11-10 13:00:00 0 2 Oeste 22 Noroeste 0.3 -- -- 91
2019-11-10 12:00:00 0.1 2 Oeste 27 Oeste 0 -- -- 95
2019-11-10 11:00:00 -0.3 0 Calma 23 Noroeste 0 -- -- 95
2019-11-10 10:00:00 -0.4 0 Calma 18 Noroeste 0 -- -- 92
2019-11-10 09:00:00 -0.6 2 Oeste 23 Oeste 0 -- -- 89
2019-11-10 08:00:00 -0.9 0 Calma 17 Oeste 0 -- -- 86
2019-11-10 07:00:00 -0.7 2 Oeste 21 Noroeste 0 -- -- 87
2019-11-10 06:00:00 -0.6 2 Noroeste 17 Noroeste 0 -- -- 87
2019-11-10 05:00:00 -0.6 0 Calma 15 Noroeste 0 -- -- 88
2019-11-10 04:00:00 0.3 0 Calma 24 Oeste 0 -- -- 91
2019-11-10 03:00:00 1.1 0 Calma 32 Noroeste 0 -- -- 90
2019-11-10 02:00:00 1.6 3 Noroeste 28 Noroeste 0 -- -- 88
2019-11-10 01:00:00 1.8 0 Calma 21 Oeste 0 -- -- 94
2019-11-10 00:00:00 2.1 3 Oeste 30 Noroeste 0 -- -- 88
2019-11-09 23:00:00 2 2 Oeste 28 Noroeste 0 -- -- 88
2019-11-09 22:00:00 3.1 3 Oeste 24 Noroeste 0 -- -- 92
2019-11-09 21:00:00 3.2 3 Oeste 20 Noroeste 0 -- -- 94
2019-11-09 20:00:00 4.1 4 Oeste 30 Oeste 0 -- -- 95
2019-11-09 19:00:00 5.3 3 Oeste 27 Noroeste 0.1 -- -- 97
2019-11-09 18:00:00 5.7 3 Oeste 22 Sudoeste 0.8 -- -- 97
2019-11-09 17:00:00 5.5 3 Oeste 24 Oeste 0.2 -- -- 96
2019-11-09 16:00:00 5.4 3 Sudoeste 14 Sudoeste 4.2 -- -- 96
2019-11-09 15:00:00 5.1 3 Oeste 20 Sudoeste 5.5 -- -- 95
2019-11-09 14:00:00 5.2 3 Oeste 19 Sudoeste 1.8 -- -- 95
2019-11-09 13:00:00 5.4 2 Oeste 13 Sudoeste 0.8 -- -- 94
2019-11-09 12:00:00 4.2 2 Oeste 13 Sudoeste 0.2 -- -- 91
2019-11-09 11:00:00 3.1 2 Sudoeste 12 Sudoeste 0 -- -- 80
2019-11-09 10:00:00 2.2 3 Oeste 22 Oeste 0 -- -- 74
2019-11-09 09:00:00 0.7 3 Oeste 16 Sudoeste 0 -- -- 85
2019-11-09 08:00:00 -0.9 2 Oeste 17 Oeste 0 -- -- 88
2019-11-09 07:00:00 -0.5 3 Sudoeste 22 Sudoeste 0 -- -- 86
2019-11-09 06:00:00 -0.4 3 Sudoeste 22 Sudoeste 0 -- -- 88
2019-11-09 05:00:00 -1 3 Oeste 12 Sudoeste 0 -- -- 90
2019-11-09 04:00:00 -0.6 2 Oeste 16 Oeste 0 -- -- 87
2019-11-09 03:00:00 0.2 3 Sudoeste 16 Oeste 0 -- -- 86
2019-11-09 02:00:00 0.2 2 Sudoeste 17 Oeste 0 -- -- 86
2019-11-09 01:00:00 0.2 0 Calma 17 Oeste 0 -- -- 86
2019-11-09 00:00:00 0 0 Calma 20 Oeste 0 -- -- 83
2019-11-08 23:00:00 0.7 0 Calma 18 Oeste 0 -- -- 83
2019-11-08 22:00:00 1 2 Oeste 19 Oeste 0 -- -- 82
2019-11-08 21:00:00 1 2 Oeste 18 Noroeste 0 -- -- 80
2019-11-08 20:00:00 1.2 3 Oeste 20 Noroeste 0 -- -- 80
2019-11-08 19:00:00 1.3 2 Oeste 21 Noroeste 0 -- -- 79
2019-11-08 18:00:00 1.6 2 Oeste 19 Oeste 0 -- -- 74
2019-11-08 17:00:00 2.5 2 Oeste 18 Sudoeste 0 -- -- 71
2019-11-08 16:00:00 3.1 2 Oeste 23 Noroeste 0 -- -- 68
2019-11-08 15:00:00 3.5 3 Oeste 24 Sudoeste 0 -- -- 65
2019-11-08 14:00:00 4.5 0 Calma 16 Oeste 0 -- -- 64
2019-11-08 13:00:00 4.4 0 Calma 17 Noroeste 0 -- -- 74
2019-11-08 12:00:00 1.8 2 Noroeste 18 Oeste 0 -- -- 89
2019-11-08 11:00:00 -0.4 3 Oeste 19 Oeste 0 -- -- 92
2019-11-08 10:00:00 -1 0 Calma 19 Oeste 0 -- -- 95
2019-11-08 09:00:00 -1.6 0 Calma 19 Oeste 0 -- -- 95
2019-11-08 08:00:00 -1.8 0 Calma 21 Sudoeste 0 -- -- 94
2019-11-08 07:00:00 -1.7 0 Calma 18 Oeste 0 -- -- 94
2019-11-08 06:00:00 -1.8 2 Sudoeste 22 Oeste 0 -- -- 90
2019-11-08 05:00:00 -1.7 0 Calma 23 Oeste 0 -- -- 88
2019-11-08 04:00:00 -1.5 3 Oeste 24 Oeste 0 -- -- 90
2019-11-08 03:00:00 -1.3 3 Oeste 19 Oeste 0 -- -- 90
2019-11-08 02:00:00 -1.3 3 Oeste 22 Oeste 0 -- -- 90
2019-11-08 01:00:00 -1.3 2 Oeste 18 Oeste 0 -- -- 91
2019-11-08 00:00:00 -1 3 Oeste 19 Sudoeste 0 -- -- 92
2019-11-07 23:00:00 -1 0 Calma 17 Noroeste 0 -- -- 92
2019-11-07 22:00:00 -0.7 2 Oeste 22 Oeste 0 -- -- 94
2019-11-07 21:00:00 -0.4 2 Oeste 22 Oeste 0.9 -- -- 95
2019-11-07 20:00:00 0.3 3 Oeste 18 Oeste 0.1 -- -- 94
2019-11-07 19:00:00 0.5 3 Sudoeste 19 Oeste 0.1 -- -- 92
2019-11-07 18:00:00 0.8 2 Oeste 22 Noroeste 0.1 -- -- 92
2019-11-07 17:00:00 1.1 3 Sudoeste 20 Oeste 0.4 -- -- 87
2019-11-07 16:00:00 2.6 3 Oeste 26 Oeste 0 -- -- 74
2019-11-07 15:00:00 3.6 3 Oeste 28 Noroeste 0 -- -- 64
2019-11-07 14:00:00 5.3 2 Oeste 28 Noroeste 0 -- -- 59
2019-11-07 13:00:00 5.3 3 Oeste 23 Oeste 0 -- -- 63
2019-11-07 12:00:00 1.8 3 Oeste 18 Sudoeste 0 -- -- 79
2019-11-07 11:00:00 1.8 2 Oeste 17 Sudoeste 0 -- -- 88
2019-11-07 10:00:00 1.8 3 Oeste 21 Noroeste 0 -- -- 88
2019-11-07 09:00:00 1.9 0 Calma 26 Sudoeste 0 -- -- 92
2019-11-07 08:00:00 3.5 2 Oeste 30 Noroeste 0.1 -- -- 92
2019-11-07 07:00:00 4.2 3 Sudoeste 22 Noroeste 0 -- -- 94
2019-11-07 06:00:00 4.7 2 Oeste 23 Noroeste 0.8 -- -- 94
2019-11-07 05:00:00 5.9 4 Oeste 22 Oeste 1.1 -- -- 96
2019-11-07 04:00:00 6.1 6 Oeste 18 Sudoeste 0.1 -- -- 96
2019-11-07 03:00:00 5.9 6 Sudoeste 18 Sudoeste 0.1 -- -- 96
2019-11-07 02:00:00 6 2 Oeste 14 Oeste 0.2 -- -- 96
2019-11-07 01:00:00 5.8 2 Oeste 11 Sudoeste 0.4 -- -- 96
2019-11-07 00:00:00 5.3 0 Calma 6 Sudoeste 0.4 -- -- 96
2019-11-06 23:00:00 5 0 Calma 6 Sudoeste 0.5 -- -- 95
2019-11-06 22:00:00 4.6 0 Calma 8 Sudoeste 0.3 -- -- 95
2019-11-06 21:00:00 4.5 2 Sudoeste -- -- -- -- -- 94
2019-11-06 20:00:00 4.4 2 Sudoeste 14 Oeste 0 -- -- 94
2019-11-06 19:00:00 4.3 2 Sudoeste 12 Oeste 0 -- -- 94
2019-11-06 18:00:00 4.4 3 Oeste 12 Oeste 0.1 -- -- 92
2019-11-06 17:00:00 5 3 Sudoeste 15 Sudoeste 0 -- -- 84
2019-11-06 16:00:00 5.8 2 Oeste 14 Oeste 0 -- -- 69
2019-11-06 15:00:00 7.2 2 Oeste 17 Sudoeste 0 -- -- 61
2019-11-06 14:00:00 6.2 2 Oeste 20 Sudoeste 0 -- -- 63
2019-11-06 13:00:00 6.6 3 Sudoeste 15 Sudoeste 0 -- -- 69
2019-11-06 12:00:00 4.3 3 Sudoeste 19 Sudoeste 0 -- -- 74
2019-11-06 11:00:00 4.8 3 Sudoeste 15 Oeste 0 -- -- 74
2019-11-06 10:00:00 2.8 2 Sudoeste 19 Oeste 0 -- -- 90
2019-11-06 09:00:00 2 5 Sudoeste 21 Oeste 0 -- -- 92
2019-11-06 08:00:00 1.7 4 Oeste 22 Noroeste 0 -- -- 91
2019-11-06 07:00:00 1.8 3 Sudoeste 14 Oeste 0 -- -- 92
2019-11-06 06:00:00 1.9 3 Sudoeste 10 Oeste 0 -- -- 90
2019-11-06 05:00:00 2 0 Calma 14 Oeste 0 -- -- 90
2019-11-06 04:00:00 2.2 3 Sudoeste 14 Oeste 0 -- -- 90
2019-11-06 03:00:00 2.4 3 Oeste 19 Oeste 0 -- -- 88
2019-11-06 02:00:00 2.5 3 Sudoeste 22 Oeste 0 -- -- 88
2019-11-06 01:00:00 2.7 0 Calma 19 Noroeste 0 -- -- 86
2019-11-06 00:00:00 3.4 0 Calma 24 Noroeste 0 -- -- 84
2019-11-05 23:00:00 3.6 2 Oeste 23 Oeste 0 -- -- 86
2019-11-05 22:00:00 3.6 3 Oeste 24 Oeste 0 -- -- 87
2019-11-05 21:00:00 3.8 0 Calma 26 Noroeste 0 -- -- 84
2019-11-05 20:00:00 3.9 2 Oeste 28 Oeste 0 -- -- 87
2019-11-05 19:00:00 4 4 Oeste 33 Oeste 0 -- -- 88
2019-11-05 18:00:00 4.2 4 Oeste 29 Sudoeste 0.1 -- -- 90
2019-11-05 17:00:00 4.9 3 Oeste 23 Oeste 0 -- -- 86
2019-11-05 16:00:00 5.2 4 Oeste 31 Oeste 0.1 -- -- 88
2019-11-05 15:00:00 4.8 5 Oeste 29 Oeste 0 -- -- 87
2019-11-05 14:00:00 5.1 6 Oeste 32 Noroeste 0.1 -- -- 91
2019-11-05 13:00:00 4.7 3 Oeste 26 Nordeste 0.3 -- -- 95
2019-11-05 12:00:00 4.2 6 Oeste 28 Sudoeste 0 -- -- 96
2019-11-05 11:00:00 4.2 6 Oeste 31 Sudoeste 0.3 -- -- 98
2019-11-05 10:00:00 3.2 8 Oeste 26 Sudoeste 0.2 -- -- 97
2019-11-05 09:00:00 2.1 6 Oeste 26 Sudoeste 0 -- -- 96
2019-11-05 08:00:00 1.6 4 Oeste 28 Oeste 0 -- -- 95
2019-11-05 07:00:00 1.4 5 Oeste 30 Oeste 0 -- -- 94
2019-11-05 06:00:00 1.3 6 Oeste 28 Oeste 0.1 -- -- 95
2019-11-05 05:00:00 1.4 5 Oeste 35 Noroeste 0 -- -- 94
2019-11-05 04:00:00 1.4 5 Oeste 28 Oeste 0.2 -- -- 95
2019-11-05 03:00:00 1.8 5 Oeste 37 Sudoeste 0 -- -- 92
2019-11-05 02:00:00 2.3 5 Oeste 26 Sudoeste 0 -- -- 94
2019-11-05 01:00:00 2.5 4 Sudoeste 26 Oeste 0.2 -- -- 94
2019-11-05 00:00:00 2.7 5 Sudoeste 29 Sudoeste 0.1 -- -- 94
2019-11-04 23:00:00 3.4 5 Oeste 30 Noroeste 0 -- -- 92
2019-11-04 22:00:00 4.6 5 Oeste 35 Oeste 0.7 -- -- 92
2019-11-04 21:00:00 5.9 6 Sudoeste 34 Oeste 0.2 -- -- 91
2019-11-04 20:00:00 7.3 9 Oeste 36 Sudoeste 0 -- -- 82
2019-11-04 19:00:00 7.7 8 Oeste 34 Noroeste 0 -- -- 86
2019-11-04 18:00:00 8.4 11 Oeste 46 Oeste 0.1 -- -- 87
2019-11-04 17:00:00 10.6 4 Oeste 29 Noroeste 0 -- -- 74
2019-11-04 16:00:00 11.2 7 Sudoeste 36 Oeste 0 -- -- 65
2019-11-04 15:00:00 11.6 10 Oeste 41 Oeste 0 -- -- 59
2019-11-04 14:00:00 13 8 Oeste 44 Oeste 0 -- -- 53
2019-11-04 13:00:00 12.8 9 Oeste 40 Oeste 0 840.9 -- 55
2019-11-04 12:00:00 12.3 9 Oeste 36 Oeste 0 -- -- 59
2019-11-04 11:00:00 11.6 7 Oeste 30 Sudoeste 0 -- -- 64
2019-11-04 10:00:00 10.3 4 Oeste 19 Sudoeste 0 -- -- 66
2019-11-04 09:00:00 8 6 Sudoeste 25 Oeste 0 -- -- 82
2019-11-04 08:00:00 5.4 5 Sudoeste 33 Oeste 0 -- -- 90
2019-11-04 07:00:00 5.5 6 Sudoeste 25 Oeste 0 -- -- 90
2019-11-04 06:00:00 5.8 3 Sudoeste 25 Oeste 0 -- -- 87
2019-11-04 05:00:00 7.2 8 Oeste 31 Oeste 0 -- -- 91
2019-11-04 04:00:00 6.7 6 Sudoeste 34 Oeste 0 842.5 -- 84
2019-11-04 03:00:00 7.4 5 Sudoeste 33 Noroeste 0 -- -- 83
2019-11-04 02:00:00 7.6 8 Oeste 33 Sudoeste 0 843.3 -- 87
2019-11-04 01:00:00 8.3 9 Oeste 32 Oeste 0 -- -- 88
2019-11-04 00:00:00 7.8 5 Sudoeste 27 Sudoeste 0 -- -- 91
2019-11-03 23:00:00 8 8 Sudoeste 32 Sudoeste 0 -- -- 92
2019-11-03 22:00:00 7.7 7 Oeste 25 Oeste 0 -- -- 94
2019-11-03 21:00:00 7.4 6 Oeste 22 Oeste 0 -- -- 92
2019-11-03 20:00:00 7.2 6 Oeste 25 Sudoeste 0 -- -- 86
2019-11-03 19:00:00 6.5 6 Oeste 25 Sudoeste 0 -- -- 80
2019-11-03 18:00:00 6.4 6 Oeste 26 Oeste 0 -- -- 78
2019-11-03 17:00:00 6.8 7 Oeste 31 Oeste 0 843.3 1.4 74
2019-11-03 16:00:00 6.5 10 Oeste 33 Sudoeste 0 843.2 1.4 74
2019-11-03 15:00:00 6.6 8 Oeste 36 Sudoeste 0 842.3 0.9 78
2019-11-03 14:00:00 6.3 9 Oeste 29 Oeste 0 841.9 1.2 80
2019-11-03 13:00:00 6 8 Oeste 30 Sudoeste 0 841.8 2.5 80
2019-11-03 12:00:00 6 7 Sudoeste 35 Oeste 0 841.4 3 83
2019-11-03 11:00:00 5.8 8 Oeste 38 Sudoeste 0 840.7 3.4 81
2019-11-03 10:00:00 6 4 Oeste 37 Noroeste 0.1 839.3 2.9 91
2019-11-03 09:00:00 7 6 Oeste 39 Oeste 0.6 838.4 2.4 95
2019-11-03 08:00:00 7.6 8 Oeste 38 Oeste 0.5 837.3 1.8 96
2019-11-03 07:00:00 7.6 12 Oeste 41 Sudoeste 0.3 836.4 0.3 95
2019-11-03 06:00:00 7.4 9 Oeste 37 Oeste 0.1 836 -0.7 95
2019-11-03 05:00:00 7 10 Oeste 37 Sudoeste 0.2 835.5 -1.4 95
2019-11-03 04:00:00 7 11 Oeste 42 Sudoeste 0.1 836.1 -1.4 95
2019-11-03 03:00:00 7 11 Oeste 42 Sudoeste 0.2 836.7 -1.5 94
2019-11-03 02:00:00 7 10 Oeste 42 Sudoeste 0 836.9 -1.6 92
2019-11-03 01:00:00 7.3 10 Oeste 32 Oeste 0 837.5 -1.5 83
2019-11-03 00:00:00 6.6 8 Oeste 34 Oeste 0 838.2 -1 80
2019-11-02 23:00:00 6.8 5 Oeste 26 Oeste 0 838.5 -1.7 73
2019-11-02 22:00:00 7.1 6 Oeste 32 Noroeste 0 839 -1.4 71
2019-11-02 21:00:00 7.3 6 Oeste 24 Oeste 0 839.2 -1.5 82
2019-11-02 20:00:00 7.5 7 Oeste 28 Sudoeste 0 840.2 -0.7 84
2019-11-02 19:00:00 7.5 5 Oeste 28 Oeste 0 840.4 -0.5 87
2019-11-02 18:00:00 8.3 6 Oeste 31 Sudoeste 0.1 840.7 -0.9 88
2019-11-02 17:00:00 10.4 6 Oeste 30 Noroeste 0.9 840.9 -1.2 88
2019-11-02 16:00:00 11.5 5 Oeste 21 Oeste 0 840.9 -2.1 74
2019-11-02 15:00:00 12.3 3 Oeste 17 Sudoeste 0 841.6 -1.8 70
2019-11-02 14:00:00 13 4 Oeste 22 Oeste 0 842.1 -1.6 71
2019-11-02 13:00:00 11.7 5 Oeste 23 Oeste 0 843 -0.8 83
2019-11-02 12:00:00 11.4 7 Oeste 30 Sudoeste 0 843.4 -0.6 88
2019-11-02 11:00:00 10.4 5 Oeste 21 Sudoeste 0.4 843.7 0 95
2019-11-02 10:00:00 9.6 4 Oeste 19 Oeste 0.4 843.8 -0.3 95
2019-11-02 09:00:00 9.4 4 Oeste 19 Sudoeste 0.2 844 -0.8 96
2019-11-02 08:00:00 8.6 4 Oeste 19 Oeste 0.1 843.7 -1.1 95
2019-11-02 07:00:00 8.5 4 Oeste 19 Oeste 0 844.1 -1.6 95
2019-11-02 06:00:00 8.6 5 Oeste 21 Oeste 0.1 844.8 -1.4 95
2019-11-02 05:00:00 9.1 3 Oeste 17 Oeste 0.1 844.8 -2.1 95
2019-11-02 04:00:00 9.3 4 Oeste 17 Oeste 0 845.7 -1.8 95
2019-11-02 03:00:00 9.4 4 Oeste 24 Oeste 1.2 846.2 -1.8 95
2019-11-02 02:00:00 9.7 6 Oeste 30 Sudoeste 0 846.9 -1.7 95
2019-11-02 01:00:00 9.8 6 Oeste 24 Sudoeste 0.1 847.5 -1.2 95
2019-11-02 00:00:00 9.8 6 Oeste 29 Oeste 0 848 -1.2 95
2019-11-01 23:00:00 9.7 4 Sudoeste 17 Oeste 0.1 848.6 -0.8 95
2019-11-01 22:00:00 9.6 5 Oeste 22 Oeste 1 848.7 -0.8 95
2019-11-01 21:00:00 10.1 7 Sudoeste 27 Oeste 0.4 849.2 -0.7 94
2019-11-01 20:00:00 10.9 8 Oeste 36 Oeste 0.9 849.4 -0.8 94
2019-11-01 19:00:00 11.2 5 Oeste 20 Oeste 0.5 849.5 -0.7 94
2019-11-01 18:00:00 11.4 7 Oeste 28 Oeste 0 849.9 -1.1 90
2019-11-01 17:00:00 11.7 8 Oeste 29 Sudoeste 0 850.2 -1.6 90
2019-11-01 16:00:00 12.2 5 Oeste 29 Oeste 0.1 850.2 -2.4 92
2019-11-01 15:00:00 12.3 6 Oeste 24 Sudoeste 0.9 851 -2.2 92
2019-11-01 14:00:00 12.7 6 Oeste 24 Oeste 0.3 851.8 -1.9 94
2019-11-01 13:00:00 12.6 7 Oeste 23 Oeste 0.3 852.6 -1.3 92
2019-11-01 12:00:00 12.6 5 Oeste 19 Noroeste 0.1 853.2 -0.7 91
2019-11-01 11:00:00 12.3 5 Oeste 17 Sudoeste 0 853.7 0.1 94
2019-11-01 10:00:00 11.7 4 Oeste 14 Oeste 0.1 853.9 0 95
2019-11-01 09:00:00 11.4 5 Sudoeste 19 Sudoeste 0 853.9 -0.3 95
2019-11-01 08:00:00 11.1 5 Sudoeste 21 Sudoeste 0 853.6 -0.5 95
2019-11-01 07:00:00 11.3 3 Oeste 19 Oeste 0 853.9 -0.3 95
2019-11-01 06:00:00 11.3 4 Oeste 24 Oeste 0.1 854.2 -0.5 95
2019-11-01 05:00:00 11.2 4 Oeste 19 Noroeste 0.1 854.1 -1 95
2019-11-01 04:00:00 11.3 4 Oeste 20 Oeste 0 854.2 -1.3 95
2019-11-01 03:00:00 11.5 4 Sudoeste 14 Sudoeste 0.2 854.7 -0.9 95
2019-11-01 02:00:00 11.5 4 Sudoeste 15 Oeste 0.1 855.1 -0.2 95
2019-11-01 01:00:00 11.4 4 Sudoeste 15 Sudoeste 0.2 855.5 0.3 95
2019-11-01 00:00:00 11.4 4 Oeste 21 Sudoeste 0.1 855.6 0.3 95
2019-10-31 23:00:00 11.6 5 Sudoeste 17 Sudoeste 0 855.3 0.1 95
2019-10-31 22:00:00 11.5 5 Sudoeste 15 Sudoeste 0.2 855.2 0 94
2019-10-31 21:00:00 11.4 5 Sudoeste 18 Oeste 0 855.3 0.3 94
2019-10-31 20:00:00 11.5 4 Oeste 14 Oeste 0.2 855.2 0.4 92
2019-10-31 19:00:00 11.2 2 Sudoeste 12 Oeste 0.5 855.2 0.5 92
2019-10-31 18:00:00 11.3 5 Oeste 20 Oeste 0.3 855 0 88
2019-10-31 17:00:00 12.5 5 Oeste 21 Oeste 0 854.8 -0.5 68
2019-10-31 16:00:00 13.5 4 Sudoeste 19 Sudoeste 0 854.7 -1.2 56
2019-10-31 15:00:00 14.4 6 Sudoeste 21 Sudoeste 0 855 -1 52
2019-10-31 14:00:00 15.8 5 Oeste 18 Sudoeste 0 855.3 -0.5 52
2019-10-31 13:00:00 15 6 Oeste 21 Sudoeste 0 855.9 0.5 52
2019-10-31 12:00:00 16.3 5 Sudoeste 19 Sur 0 856 1.1 49
2019-10-31 11:00:00 15.4 5 Sudoeste 20 Sudoeste 0 855.8 1.3 59
2019-10-31 10:00:00 11.7 5 Sudoeste 19 Sudoeste 0 855.4 1.1 78
2019-10-31 09:00:00 9.7 5 Sudoeste 19 Sudoeste 0 854.9 0.7 88
2019-10-31 08:00:00 8.9 5 Sudoeste 16 Oeste 0 854.5 0.4 95
2019-10-31 07:00:00 9.4 6 Sudoeste 19 Sudoeste 0 854.3 0.2 95
2019-10-31 06:00:00 9.7 7 Sudoeste 23 Sudoeste 0 854.2 -0.1 95
2019-10-31 05:00:00 9.7 5 Sudoeste 18 Oeste 0 854.1 -0.2 95
2019-10-31 04:00:00 9.9 6 Oeste 21 Sudoeste 0 854.1 -0.3 95
2019-10-31 03:00:00 10.3 5 Oeste 21 Sudoeste 0 854.3 -0.2 95
2019-10-31 02:00:00 10.6 5 Sudoeste 24 Oeste 0 854.3 -0.2 95
2019-10-31 01:00:00 10.8 6 Sudoeste 21 Oeste 0.1 854.4 0.1 95
2019-10-31 00:00:00 11 5 Sudoeste 19 Oeste 0 854.5 0.3 95
2019-10-30 23:00:00 11.2 4 Oeste 21 Oeste 0 854.5 0.5 95
2019-10-30 22:00:00 11 5 Sudoeste 16 Oeste 0 854.3 0.6 95
2019-10-30 21:00:00 10.9 4 Sudoeste 12 Oeste 0 854.2 0.9 94
2019-10-30 20:00:00 11 3 Sudoeste 10 Sudoeste 0.2 854 0.7 94
2019-10-30 19:00:00 11 2 Oeste 12 Sudoeste 0.1 853.7 0.6 91
2019-10-30 18:00:00 11.6 3 Oeste 11 Oeste 0 853.3 0.2 85
2019-10-30 17:00:00 11.9 0 Calma 8 Oeste 0 853.3 0.3 83
2019-10-30 16:00:00 12.2 0 Calma 12 Sudoeste 0 853.1 -0.4 74
2019-10-30 15:00:00 12.7 3 Oeste 14 Oeste 0 853.1 -0.5 68
2019-10-30 14:00:00 12.7 3 Sudoeste 12 Oeste 0 853 -0.7 63
2019-10-30 13:00:00 13.6 3 Oeste 10 Oeste 0 853.5 -0.2 63
2019-10-30 12:00:00 13.9 2 Oeste 10 Oeste 0 853.6 0.3 63
2019-10-30 11:00:00 12.5 0 Calma 5 Sudoeste 0 853.7 0.9 72
2019-10-30 10:00:00 10.1 0 Calma 5 Sur 0 853.7 1.4 79
2019-10-30 09:00:00 8.1 0 Calma 6 Este 0 853.3 1 90
2019-10-30 08:00:00 5.5 2 Nordeste 7 Este 0 852.8 0.4 95
2019-10-30 07:00:00 6 3 Nordeste 7 Este 0 852.3 -0.1 94
2019-10-30 06:00:00 6.2 3 Este 5 Este 0 852.3 -0.3 92
2019-10-30 05:00:00 6.5 3 Norte 7 Norte 0 852.4 0.1 91
2019-10-30 04:00:00 6.4 0 Calma 5 Sudoeste 0 852.4 -0.3 90
2019-10-30 03:00:00 7 2 Oeste 8 Norte 0 852.6 0.1 88
2019-10-30 02:00:00 6.9 3 Nordeste 7 Este 0 852.3 -0.5 90
2019-10-30 01:00:00 6.5 0 Calma 6 Norte 0 852.7 0.4 90
2019-10-30 00:00:00 6.5 3 Norte 6 Este 0 852.5 0.3 92
2019-10-29 23:00:00 6.4 0 Calma 6 Noroeste 0 852.8 0.8 91
2019-10-29 22:00:00 6.1 4 Noroeste 7 Oeste 0 852.3 0.9 90
2019-10-29 21:00:00 6.9 3 Norte 6 Norte 0 852.2 1.3 87
2019-10-29 20:00:00 7.7 0 Calma 5 Noroeste 0 852 1.3 82
2019-10-29 19:00:00 9.4 0 Calma 7 Oeste 0 851.4 0.8 72
2019-10-29 18:00:00 11.5 0 Calma 18 Noroeste 0 850.9 0.9 59
2019-10-29 17:00:00 13.1 3 Oeste 16 Oeste 0 850.7 0.6 45
2019-10-29 16:00:00 14.3 4 Oeste 18 Oeste 0 850.6 0.6 41
2019-10-29 15:00:00 16 3 Oeste 18 Oeste 0 850 -0.4 37
2019-10-29 14:00:00 17.4 3 Oeste 19 Sudoeste 0 850.1 -0.1 36
2019-10-29 13:00:00 16.9 3 Sudeste 13 Sur 0 850 0.1 44
2019-10-29 12:00:00 16.2 4 Oeste 12 Oeste 0 850.4 0.7 53
2019-10-29 11:00:00 14.7 4 Oeste 10 Oeste 0 850.2 1 64
2019-10-29 10:00:00 11.8 4 Oeste 11 Oeste 0 849.9 1.5 87
2019-10-29 09:00:00 7.9 0 Calma 4 Oeste 0 849.7 1.2 96
2019-10-29 08:00:00 7 2 Sur 10 Noroeste 0 849.2 0.8 96
2019-10-29 07:00:00 7.2 3 Este 9 Este 0 848.4 0.1 96
2019-10-29 06:00:00 6.8 0 Calma 6 Nordeste 0 848.5 -0.1 96
2019-10-29 05:00:00 6.8 3 Nordeste 4 Nordeste 0 848.4 -0.6 96
2019-10-29 04:00:00 6.6 0 Calma 7 Norte 0 848.3 -0.8 96
2019-10-29 03:00:00 6.6 2 Noroeste 4 Oeste 0 848.6 -0.7 96
2019-10-29 02:00:00 7 0 Calma 6 Nordeste 0 849 -0.5 95
2019-10-29 01:00:00 7.2 0 Calma 6 Norte 0 849.1 -0.3 95
2019-10-29 00:00:00 7.4 4 Noroeste 7 Noroeste 0 849.3 0 95
2019-10-28 23:00:00 7.7 0 Calma 7 Nordeste 0 849.5 0.3 95
2019-10-28 22:00:00 7.7 2 Nordeste 4 Este 0 849.4 0.3 94
2019-10-28 21:00:00 9.1 0 Calma 3 Oeste 0 849.3 0.4 92
2019-10-28 20:00:00 10.1 0 Calma 4 Sudoeste 0 849.2 0.4 88
2019-10-28 19:00:00 11.7 0 Calma 7 Sudeste 0 849.1 -0.1 75
2019-10-28 18:00:00 14.5 2 Este 10 Nordeste 0 848.9 -0.2 64
2019-10-28 17:00:00 15.9 4 Este 14 Este 0 848.8 -0.6 56
2019-10-28 16:00:00 17.1 7 Este 14 Sudeste 0 849.2 -0.5 51
2019-10-28 15:00:00 19.1 4 Oeste 19 Oeste 0 849.1 -0.9 43
2019-10-28 14:00:00 20 4 Oeste 19 Noroeste 0 849.4 -0.6 43
2019-10-28 13:00:00 20.4 4 Oeste 14 Oeste 0 849.7 -0.4 41
2019-10-28 12:00:00 18.8 3 Sudeste 9 Sudeste 0 850 0 43
2019-10-28 11:00:00 16.9 4 Sudeste 8 Sur 0 850 0.4 55
2019-10-28 10:00:00 11.9 2 Este 12 Nordeste 0 850.1 0.6 70
2019-10-28 09:00:00 9.2 5 Nordeste 9 Norte 0 850 0.6 73
2019-10-28 08:00:00 8.6 5 Nordeste 12 Nordeste 0 849.6 -0.1 72
2019-10-28 07:00:00 7.9 5 Nordeste 11 Nordeste 0 849.5 -0.3 72
2019-10-28 06:00:00 9.4 4 Este 10 Nordeste 0 849.4 -0.6 70
2019-10-28 05:00:00 9.4 4 Nordeste 10 Norte 0 849.7 -0.3 69
2019-10-28 04:00:00 10.2 4 Nordeste 12 Nordeste 0 849.8 -1.3 68
2019-10-28 03:00:00 10.5 3 Nordeste 14 Nordeste 0 850 -1.2 65
2019-10-28 02:00:00 10.1 5 Nordeste 10 Nordeste 0 850 -1.4 65
2019-10-28 01:00:00 10.3 0 Calma 8 Este 0 851.1 -0.3 65
2019-10-28 00:00:00 9.8 3 Norte 8 Este 0 851.2 -0.1 68
2019-10-27 23:00:00 10.6 2 Noroeste 8 Nordeste 0 851.4 0.2 64
2019-10-27 22:00:00 10.4 4 Nordeste 12 Nordeste 0 851.4 0 67
2019-10-27 21:00:00 10.5 3 Este 9 Norte 0 851.3 0.1 68
2019-10-27 20:00:00 11.2 4 Nordeste 9 Este 0 851.2 0.2 66
2019-10-27 19:00:00 12.1 4 Nordeste 7 Este 0 851.4 0.4 60
2019-10-27 18:00:00 14.1 0 Calma 7 Nordeste 0 851.2 -0.3 53
2019-10-27 17:00:00 16.1 2 Nordeste 10 Nordeste 0 851 -0.3 48
2019-10-27 16:00:00 16.3 5 Este 16 Este 0 851 -0.8 41
2019-10-27 15:00:00 18.8 4 Sudoeste 16 Sudoeste 0 851.5 -0.9 33
2019-10-27 14:00:00 18.7 3 Sur 13 Sudoeste 0 851.3 -1.2 33
2019-10-27 13:00:00 17 2 Sudoeste 8 Sudoeste 0 851.8 -1.1 43
2019-10-27 12:00:00 17.1 0 Calma 11 Norte 0 852.4 0.1 37
2019-10-27 11:00:00 16.3 3 Norte 10 Norte 0 852.5 0.6 44
2019-10-27 10:00:00 10.7 4 Este 7 Nordeste 0 852.9 1.5 63
2019-10-27 09:00:00 10 3 Nordeste 6 Norte 0 852.3 1 69
2019-10-27 08:00:00 6.4 0 Calma 7 Este 0 851.9 0.2 71
2019-10-27 07:00:00 6.5 3 Este 7 Nordeste 0 851.4 -0.6 68
2019-10-27 06:00:00 6.5 5 Nordeste 8 Nordeste 0 851.3 -1.3 71
2019-10-27 05:00:00 5.6 4 Nordeste 8 Nordeste 0 851.7 -0.8 68
2019-10-27 04:00:00 5.5 4 Nordeste 7 Nordeste 0 852 -0.7 67
2019-10-27 03:00:00 5.6 3 Norte 6 Norte 0 852.6 -0.2 67
2019-10-27 02:00:00 5.2 3 Nordeste 7 Nordeste 0 852.5 -0.2 70
2019-10-27 01:00:00 6.8 3 Nordeste 7 Norte 0 852.8 0.1 65
2019-10-27 00:00:00 6.8 4 Nordeste 8 Este 0 852.7 0.4 61
2019-10-26 23:00:00 7.5 4 Nordeste 9 Nordeste 0 852.8 0.7 68
2019-10-26 22:00:00 8.7 3 Nordeste 9 Norte 0 852.7 1.1 65
2019-10-26 21:00:00 9.6 5 Nordeste 9 Nordeste 0 852.3 0.8 64
2019-10-26 20:00:00 11.7 4 Nordeste 9 Noroeste 0 852.1 0.8 58
2019-10-26 19:00:00 14.2 3 Nordeste 12 Este 0 851.6 -0.2 46
2019-10-26 18:00:00 16.1 5 Este 15 Este 0 851.5 -0.4 41
2019-10-26 17:00:00 17 6 Este 18 Sudeste 0 851.3 -1 40
2019-10-26 16:00:00 17 9 Este 20 Este 0 851.8 -0.7 38
2019-10-26 15:00:00 19.2 7 Nordeste 19 Este 0 851.9 -0.6 36
2019-10-26 14:00:00 19.3 5 Sudeste 17 Este 0 852.3 0 35
2019-10-26 13:00:00 18.6 5 Este 13 Este 0 852.5 0.3 35
2019-10-26 12:00:00 17.2 6 Nordeste 17 Nordeste 0 852.5 0.8 39
2019-10-26 11:00:00 15 3 Este 8 Nordeste 0 852.3 0.8 41
2019-10-26 10:00:00 10.1 4 Este 9 Este 0 852.2 0.6 48
2019-10-26 09:00:00 5.3 5 Este 11 Nordeste 0 851.7 0.1 59
2019-10-26 08:00:00 5.8 4 Nordeste 8 Este 0 851.5 -0.2 53
2019-10-26 07:00:00 5.7 4 Este 9 Nordeste 0 851.6 -0.8 56
2019-10-26 06:00:00 5.2 4 Nordeste 8 Este 0 851.6 -0.9 60
2019-10-26 05:00:00 4.6 3 Nordeste 7 Norte 0 851.7 -1.3 69
2019-10-26 04:00:00 5.3 3 Nordeste 7 Este 0 852.4 -0.9 69
2019-10-26 03:00:00 5.5 2 Nordeste 7 Norte 0 852.5 -1 71
2019-10-26 02:00:00 5.7 4 Norte 9 Norte 0 853 -0.3 74
2019-10-26 01:00:00 5 3 Nordeste 8 Norte 0 853.3 -0.1 77
2019-10-26 00:00:00 5.3 3 Norte 9 Norte 0 853.5 0.1 81
2019-10-25 23:00:00 6.6 4 Nordeste 12 Norte 0 853.3 0.3 88
2019-10-25 22:00:00 7.5 3 Nordeste 5 Nordeste 0 853.4 1 83
2019-10-25 21:00:00 8.7 3 Este 10 Nordeste 0 853.4 0.8 78
2019-10-25 20:00:00 10.2 3 Nordeste 11 Nordeste 0 853 -0.1 65
2019-10-25 19:00:00 13.6 3 Nordeste 13 Sudoeste 0 852.4 -0.5 41
2019-10-25 18:00:00 15.6 4 Sudoeste 14 Sudoeste 0 852.6 -0.7 32
2019-10-25 17:00:00 16.4 4 Sudoeste 21 Sur 0 853.1 -0.7 31
2019-10-25 16:00:00 17.2 8 Sur 20 Sudoeste 0 852.9 -1.3 28
2019-10-25 15:00:00 18.3 6 Sur 21 Sudoeste 0 853.3 -1 28
2019-10-25 14:00:00 18.4 9 Sudoeste 23 Sudoeste 0 853.8 -0.1 31
2019-10-25 13:00:00 17.5 6 Sur 22 Sur 0 854.2 0.5 35
2019-10-25 12:00:00 15.6 2 Sur 8 Sur 0 854.3 1 43
2019-10-25 11:00:00 13.4 0 Calma 6 Este 0 853.9 0.8 69
2019-10-25 10:00:00 7.8 3 Nordeste 8 Nordeste 0 853.7 0.3 83
2019-10-25 09:00:00 4.8 2 Nordeste 9 Nordeste 0 853.3 0.1 92
2019-10-25 08:00:00 4.6 3 Nordeste 10 Nordeste 0 853.1 -0.1 92
2019-10-25 07:00:00 4.5 3 Nordeste 7 Este 0 853.4 -0.2 94
2019-10-25 06:00:00 4.6 0 Calma 8 Nordeste 0 853.2 -0.4 94
2019-10-25 05:00:00 4.5 4 Este 7 Este 0 853.2 -0.4 96
2019-10-25 04:00:00 4.7 3 Este 6 Nordeste 0 853.6 -0.2 96
2019-10-25 03:00:00 4.6 3 Este 7 Norte 0 853.6 -0.1 95
2019-10-25 02:00:00 4.7 4 Nordeste 7 Nordeste 0 853.6 0.4 95
2019-10-25 01:00:00 4.9 4 Norte 6 Nordeste 0 853.8 1 95
2019-10-25 00:00:00 5 0 Calma 5 Nordeste 0 853.7 1.2 95
2019-10-24 23:00:00 5.4 3 Nordeste 5 Norte 0 853.2 1.1 95
2019-10-24 22:00:00 6 3 Norte 5 Norte 0 852.8 1.3 94
2019-10-24 21:00:00 6.5 5 Noroeste 7 Sudoeste 0 852.5 1.6 90
2019-10-24 20:00:00 7.9 0 Calma 9 Sudoeste 0 852.1 1.4 83
2019-10-24 19:00:00 10.4 0 Calma 15 Oeste 0 851.5 1.2 68
2019-10-24 18:00:00 12 3 Oeste 17 Oeste 0 850.9 0.6 59
2019-10-24 17:00:00 13 3 Oeste 18 Sudoeste 0 850.7 0.7 53
2019-10-24 16:00:00 13.2 5 Sudoeste 17 Sudoeste 0 850.3 0.7 48
2019-10-24 15:00:00 14 0 Calma 18 Oeste 0 850.3 1.3 43
2019-10-24 14:00:00 12.9 5 Oeste 17 Sudoeste 0 850 1.7 43
2019-10-24 13:00:00 11.9 4 Oeste 15 Oeste 0 849.6 1.9 47
2019-10-24 12:00:00 9.3 4 Oeste 13 Oeste 0 849 2.2 61
2019-10-24 11:00:00 7 3 Sudoeste 11 Sur 0.1 848.3 2 86
2019-10-24 10:00:00 4.4 3 Oeste 9 Sudoeste 0 847.7 2.4 96
2019-10-24 09:00:00 1.4 3 Oeste 21 Sudoeste -- 846.8 1.9 96
2019-10-24 08:00:00 1.8 4 Sudoeste 16 Sudoeste -- 846.3 2.1 96
2019-10-24 07:00:00 2.2 2 Sudeste 20 Oeste -- 845.3 1.3 96
2019-10-24 06:00:00 2.6 0 Calma 14 Oeste -- 844.9 1 98
2019-10-24 05:00:00 3 0 Calma 13 Oeste -- 844.2 0.6 98
2019-10-24 04:00:00 2.8 5 Sudoeste 18 Oeste -- 844 0.8 98
2019-10-24 03:00:00 2.9 6 Oeste 18 Noroeste -- 843.9 1.4 98
2019-10-24 02:00:00 3.2 4 Oeste 20 Oeste -- 843.6 1.4 98
2019-10-24 01:00:00 3.7 4 Oeste 15 Noroeste -- 843.2 1.6 98
2019-10-24 00:00:00 3.6 0 Calma 13 Oeste -- 842.5 1.4 96
2019-10-23 23:00:00 3.6 3 Oeste 12 Oeste -- 842.2 1.7 96
2019-10-23 22:00:00 3.6 3 Oeste 15 Sudoeste -- 841.6 1.7 96
2019-10-23 21:00:00 3.9 3 Oeste 12 Oeste -- 841.1 1.7 96
2019-10-23 20:00:00 3.9 0 Calma 16 Sudoeste -- 840.5 1.9 95
2019-10-23 19:00:00 4.1 6 Sudoeste 19 Sudoeste -- 839.9 1.8 95
2019-10-23 18:00:00 4.3 3 Oeste 13 Sudoeste -- 839.4 1.3 94
2019-10-23 17:00:00 4.5 3 Sudoeste 23 Norte -- 838.6 1 94
2019-10-23 16:00:00 4.8 5 Noroeste 26 Noroeste -- 838.1 0.6 95
2019-10-23 15:00:00 4.9 5 Noroeste 27 Sudoeste -- 838.1 0.1 95
2019-10-23 14:00:00 5.2 4 Oeste 26 Sudoeste -- 837.6 0.2 98
2019-10-23 13:00:00 4.1 6 Sudoeste 17 Sudoeste -- 837.5 0.6 98
2019-10-23 12:00:00 2.8 3 Sudoeste 14 Oeste -- 838 1.1 98
2019-10-23 11:00:00 1.7 4 Sudoeste 15 Oeste -- 837.4 0.5 97
2019-10-23 10:00:00 1 6 Sudoeste 21 Oeste -- 836.9 -0.2 97
2019-10-23 09:00:00 0.4 3 Sudoeste 11 Oeste -- 836.9 -0.2 98
2019-10-23 08:00:00 0.6 4 Sudoeste 12 Oeste -- 836.9 -0.8 98
2019-10-23 07:00:00 0.8 4 Sudoeste 17 Sudoeste -- 837.1 -1.1 98
2019-10-23 06:00:00 0.5 4 Sudoeste 17 Sudoeste -- 837.1 -1.4 97
2019-10-23 05:00:00 0.7 4 Sudoeste 15 Sudoeste -- 837.7 -1.6 96
2019-10-23 04:00:00 1.3 4 Oeste 14 Sudoeste -- 838.2 -1.6 96
2019-10-23 03:00:00 2 0 Calma 15 Sudoeste -- 838.5 -1.8 95
2019-10-23 02:00:00 2.3 3 Sudoeste 12 Oeste -- 839.3 -1.5 95
2019-10-23 01:00:00 2.4 5 Sudoeste 14 Sudoeste -- 839.8 -1.1 94
2019-10-23 00:00:00 2.7 3 Oeste 13 Oeste -- 840.3 -0.8 91
2019-10-22 23:00:00 3.1 5 Oeste 21 Noroeste -- 840.8 0.1 90
2019-10-22 22:00:00 3.4 2 Noroeste 15 Noroeste -- 840.9 -0.4 88
2019-10-22 21:00:00 3.7 3 Norte 13 Noroeste -- 841.1 -0.1 87
2019-10-22 20:00:00 4.1 0 Calma 17 Norte -- 840.7 -0.3 85
2019-10-22 19:00:00 4.6 8 Nordeste 25 Nordeste -- 841.3 -0.4 78
2019-10-22 18:00:00 5.6 5 Norte 28 Norte -- 841.2 -0.7 74
2019-10-22 17:00:00 5.6 12 Norte 31 Norte -- 841 -1.7 72
2019-10-22 16:00:00 8.1 7 Norte 19 Norte -- 841.7 -2 51
2019-10-22 15:00:00 9.4 6 Nordeste 17 Norte -- 841.9 -2.3 49
2019-10-22 14:00:00 8.5 4 Nordeste 18 Norte -- 842.7 -1.8 51
2019-10-22 13:00:00 7.3 4 Norte 17 Nordeste -- 843.7 -1.1 63
2019-10-22 12:00:00 5.2 0 Calma 5 Sudeste -- 844.2 -0.4 83
2019-10-22 11:00:00 2.1 0 Calma 4 Oeste -- 844.5 -0.2 98
2019-10-22 10:00:00 -0.7 0 Calma 8 Norte -- 844.8 0.3 98
2019-10-22 09:00:00 -1.3 3 Nordeste 9 Nordeste -- 844.6 -0.6 98
2019-10-22 08:00:00 -1.6 0 Calma 8 Norte -- 844.7 -0.6 98
2019-10-22 07:00:00 -1.3 0 Calma -- -- -- 844.5 -1.4 98
2019-10-22 06:00:00 -1.1 0 Calma 6 Nordeste -- 845.2 -0.6 98
2019-10-22 05:00:00 -1.2 2 Este 5 Nordeste -- 845.3 -0.8 97
2019-10-22 04:00:00 -1.2 3 Nordeste -- -- -- 845.9 -0.8 98
2019-10-22 03:00:00 -1.3 3 Norte 5 Norte -- 845.8 -1 97
2019-10-22 02:00:00 -0.6 3 Este 4 Este -- 846.1 -0.9 97
2019-10-22 01:00:00 -0.9 0 Calma 7 Norte -- 846.7 -0.1 96
2019-10-22 00:00:00 -0.1 6 Nordeste 9 Nordeste -- 846.8 0 96
2019-10-21 23:00:00 0 4 Nordeste 7 Nordeste -- 847 0.4 96
2019-10-21 22:00:00 0.1 4 Nordeste 12 Nordeste -- 846.8 0.4 95
2019-10-21 21:00:00 0.6 3 Nordeste 6 Norte -- 846.8 0.8 92
2019-10-21 20:00:00 1.8 0 Calma 10 Sudoeste -- 846.6 0.6 90
2019-10-21 19:00:00 3.6 3 Noroeste 24 Sudoeste -- 846.4 0.4 84
2019-10-21 18:00:00 5.6 2 Oeste 11 Oeste -- 846 -0.5 72
2019-10-21 17:00:00 6.6 3 Sudoeste 12 Oeste -- 846 -0.7 66
2019-10-21 16:00:00 6.7 3 Oeste 15 Este -- 846 -1.1 76
2019-10-21 15:00:00 5.9 6 Este 17 Este -- 846.5 -0.4 73
2019-10-21 14:00:00 5.8 8 Sudeste 17 Sudeste -- 846.7 -0.1 74
2019-10-21 13:00:00 4.4 6 Sudeste 17 Sudeste -- 847.1 0.6 85
2019-10-21 12:00:00 4.7 3 Sudeste 15 Sudeste 0 846.9 0.7 84
2019-10-21 11:00:00 3 0 Calma 4 Este 0 846.8 0.8 96
2019-10-21 10:00:00 0.1 2 Este 10 Nordeste 0 846.5 0.7 98
2019-10-21 09:00:00 -2 4 Nordeste 7 Norte 0 846.2 0.7 97
2019-10-21 08:00:00 -1.9 0 Calma 6 Norte 0 846 0.5 98
2019-10-21 07:00:00 -1.6 0 Calma 6 Norte 0 845.8 0.4 98
2019-10-21 06:00:00 -1.6 4 Norte 8 Norte 0 845.5 0 98
2019-10-21 05:00:00 -1.2 4 Norte 7 Nordeste 0 845.5 0.2 97
2019-10-21 04:00:00 -1.2 0 Calma 5 Nordeste 0 845.4 -0.3 98
2019-10-21 03:00:00 -0.7 0 Calma 7 Nordeste 0 845.5 0 97
2019-10-21 02:00:00 -0.6 3 Este 5 Este 0 845.3 -0.1 98
2019-10-21 01:00:00 -0.5 3 Norte 7 Norte 0 845.7 0.9 96
2019-10-21 00:00:00 0 0 Calma 5 Oeste 0 845.5 1 96
2019-10-20 23:00:00 0.3 0 Calma 5 Noroeste 0 845.4 1.5 95
2019-10-20 22:00:00 2.1 3 Oeste 8 Oeste 0 844.8 1.7 95
2019-10-20 21:00:00 2.1 3 Oeste 5 Oeste 0 844.5 1.9 90
2019-10-20 20:00:00 3.5 0 Calma 9 Sudoeste 0 843.9 1.7 85
2019-10-20 19:00:00 4.9 4 Oeste 14 Sudoeste 0 843.1 1.6 81
2019-10-20 18:00:00 5.7 3 Oeste 20 Oeste 0 842.6 1.3 73
2019-10-20 17:00:00 5.7 3 Oeste 20 Norte 0 842.2 1.5 79
2019-10-20 16:00:00 4.9 0 Calma 21 Noroeste 0 841.5 1.1 83
2019-10-20 15:00:00 5.1 4 Noroeste 24 Noroeste 0 841.3 1.3 83
2019-10-20 14:00:00 5.9 3 Sudoeste 16 Sudoeste 0 840.7 1.3 91
2019-10-20 13:00:00 4.9 5 Sudoeste 18 Oeste 0 840.4 1.6 95
2019-10-20 12:00:00 4.8 4 Oeste 15 Oeste 0 840 2 95
2019-10-20 11:00:00 4.4 4 Oeste 11 Oeste 0 839.4 1.8 98
2019-10-20 10:00:00 3.7 2 Oeste 6 Oeste 0 838.8 1.6 98
2019-10-20 09:00:00 2.5 0 Calma 2 Noroeste 0 838 0.9 98
2019-10-20 08:00:00 2.7 0 Calma 4 Este 0 837.6 1 98
2019-10-20 07:00:00 2.5 0 Calma 8 Sudoeste 0 837.2 0.6 98
2019-10-20 06:00:00 2.9 0 Calma 9 Noroeste 0 837.1 0.5 98
2019-10-20 05:00:00 2.3 0 Calma 7 Nordeste 0 836.6 0 97
2019-10-20 04:00:00 1.8 2 Sudoeste 12 Sudoeste 0 836.6 0 95
2019-10-20 03:00:00 2.9 5 Sudoeste 14 Sudoeste 0 836.6 -0.1 95
2019-10-20 02:00:00 3.5 0 Calma 13 Oeste 0 836.6 0.4 94
2019-10-20 01:00:00 4.3 3 Sudoeste 10 Oeste 0 836.6 1 92
2019-10-20 00:00:00 5.7 4 Oeste 17 Sudoeste 0 836.7 0.3 92
2019-10-19 23:00:00 7.7 3 Oeste 25 Sudoeste 0 836.2 -0.8 95
2019-10-19 22:00:00 8 5 Sudoeste 23 Sudoeste 0 835.6 -2.4 95
2019-10-19 21:00:00 7.7 11 Sur 39 Sur 0 836.4 -1.2 95
2019-10-19 20:00:00 7.3 3 Noroeste 37 Sur 0 837 -1.6 94
2019-10-19 19:00:00 8.2 13 Sur 34 Sur 0 838 -1 92
2019-10-19 18:00:00 9.4 9 Sur 24 Sur 0 837.6 -2 91
2019-10-19 17:00:00 8.4 7 Este 25 Sur 0 838.6 -1.6 85
2019-10-19 16:00:00 11.3 6 Sudeste 32 Sur 0 839 -1.8 63
2019-10-19 15:00:00 14.1 8 Sur 38 Sudoeste 0 839.6 -1.3 57
2019-10-19 14:00:00 11.4 16 Sur 38 Sur 0 840.2 -1 64
2019-10-19 13:00:00 12.9 9 Sur 23 Sur 0 840.8 -0.6 48
2019-10-19 12:00:00 12.9 3 Oeste 14 Sur 0 840.9 -0.6 45
2019-10-19 11:00:00 9.5 2 Sur 9 Norte 0 841.2 -0.4 68
2019-10-19 10:00:00 5.2 4 Nordeste 10 Este 0 841.4 -0.7 92
2019-10-19 09:00:00 3 2 Nordeste 6 Norte 0 841.5 -1 96
2019-10-19 08:00:00 2.5 0 Calma 10 Norte 0 841.6 -1.4 95
2019-10-19 07:00:00 2.6 6 Nordeste 11 Norte 0 842.1 -1.2 95
2019-10-19 06:00:00 2.8 4 Este 7 Nordeste 0 842.5 -0.8 95
2019-10-19 05:00:00 2.4 0 Calma 6 Oeste 0 843 -0.9 93
2019-10-19 04:00:00 2.9 3 Sudoeste 17 Nordeste 0 843.3 -1 88
2019-10-19 03:00:00 3 0 Calma 9 Norte 0 843.3 -1.5 84
2019-10-19 02:00:00 4.5 5 Norte 9 Norte 0 843.9 -1.4 79
2019-10-19 01:00:00 4.4 4 Noroeste 9 Sur 0 844.3 -1.2 81
2019-10-19 00:00:00 3.9 5 Norte 10 Noroeste 0 844.8 -1 82
2019-10-18 23:00:00 5.3 3 Sudoeste 8 Sur 0 845.3 -0.6 72
2019-10-18 22:00:00 6.1 4 Norte 9 Nordeste 0 845.5 -0.5 55
2019-10-18 21:00:00 7.6 3 Noroeste 13 Sudoeste 0 845.8 -0.4 46
2019-10-18 20:00:00 9.9 5 Sudoeste 18 Sudoeste 0 845.9 -0.8 39
2019-10-18 19:00:00 13 6 Sudoeste 18 Sur 0 846 -1 36
2019-10-18 18:00:00 15.9 8 Sudoeste 20 Sur 0 846.2 -1 29
2019-10-18 17:00:00 16.7 4 Sudoeste 22 Sudoeste 0 846.7 -1.3 26
2019-10-18 16:00:00 17.8 4 Oeste 17 Sudoeste 0 847 -1.3 35
2019-10-18 15:00:00 16.2 5 Sudoeste 19 Sudoeste 0 847.2 -1.1 43
2019-10-18 14:00:00 15.3 3 Oeste 14 Oeste 0 848 -0.4 44
2019-10-18 13:00:00 14.9 3 Oeste 13 Oeste 0 848.3 -0.4 55
2019-10-18 12:00:00 13.3 2 Oeste 8 Sudoeste 0 848.3 0.1 71
2019-10-18 11:00:00 11.7 0 Calma 7 Noroeste 0 848.4 0.5 82
2019-10-18 10:00:00 9.7 0 Calma 6 Sur 0 848.7 0.6 92
2019-10-18 09:00:00 9.2 0 Calma 8 Sudoeste 0 848.2 0 94
2019-10-18 08:00:00 9.6 4 Sudoeste 11 Sudoeste 0 847.9 -0.2 94
2019-10-18 07:00:00 9.8 3 Norte 7 Sur 0 848.1 -0.2 95
2019-10-18 06:00:00 10.1 3 Oeste 9 Oeste 0 848.2 -0.7 95
2019-10-18 05:00:00 10.3 3 Oeste 9 Sudoeste 0 848.1 -0.9 95
2019-10-18 04:00:00 9.8 3 Oeste 12 Oeste 0 848.3 -1.1 95
2019-10-18 03:00:00 9.8 4 Oeste 12 Sudoeste 0 848.9 -0.7 96
2019-10-18 02:00:00 9.4 3 Sudoeste 8 Sudoeste 0 849 -0.7 95
2019-10-18 01:00:00 9.8 0 Calma 5 Noroeste 0 849.4 0 95
2019-10-18 00:00:00 10.3 0 Calma 8 Oeste 0 849.6 0.2 94